GIA237 WAHS-WIII
Flight info
| Callsign | GIA237 |
|---|---|
| Flight time | 0h 47m |
| Altitude | 30000 |
| Route | KURUS |
| Aircraft | B738/M-SDE2E3FGHIRWXY/LB1 |
Departure
| Time | 2026-04-23 14:08 |
|---|---|
| Airport | Jenderal Ahmad Yani Airport (WAHS) |
Arrival
| Time | 2026-04-23 14:55 |
|---|---|
| Airport | Soekarno-Hatta International Airport (WIII) |
| Time | Latitude | Longitude | Altitude | Speed | Heading |
|---|---|---|---|---|---|
| 2026-04-23 13:44 | -6.96713 | 110.37456 | 18 ft | 0 kts | 40° |
| 2026-04-23 14:00 | -6.96732 | 110.37439 | 18 ft | 3 kts | 46° |
| 2026-04-23 14:00 | -6.96746 | 110.37423 | 19 ft | 3 kts | 54° |
| 2026-04-23 14:00 | -6.96756 | 110.37406 | 18 ft | 3 kts | 72° |
| 2026-04-23 14:01 | -6.96758 | 110.37389 | 18 ft | 3 kts | 111° |
| 2026-04-23 14:01 | -6.96755 | 110.37382 | 18 ft | 1 kts | 130° |
| 2026-04-23 14:03 | -6.96766 | 110.37395 | 19 ft | 5 kts | 130° |
| 2026-04-23 14:03 | -6.96796 | 110.37431 | 18 ft | 9 kts | 130° |
| 2026-04-23 14:04 | -6.96847 | 110.37492 | 18 ft | 13 kts | 131° |
| 2026-04-23 14:04 | -6.96909 | 110.37560 | 17 ft | 7 kts | 154° |
| 2026-04-23 14:04 | -6.96950 | 110.37543 | 17 ft | 8 kts | 220° |
| 2026-04-23 14:04 | -6.97009 | 110.37493 | 15 ft | 15 kts | 220° |
| 2026-04-23 14:05 | -6.97120 | 110.37424 | 3 ft | 21 kts | 173° |
| 2026-04-23 14:05 | -6.97233 | 110.37525 | 4 ft | 23 kts | 131° |
| 2026-04-23 14:05 | -6.97346 | 110.37659 | 4 ft | 27 kts | 130° |
| 2026-04-23 14:05 | -6.97471 | 110.37807 | 6 ft | 29 kts | 130° |
| 2026-04-23 14:06 | -6.97596 | 110.37955 | 5 ft | 26 kts | 130° |
| 2026-04-23 14:06 | -6.97676 | 110.38082 | 5 ft | 13 kts | 98° |
| 2026-04-23 14:06 | -6.97705 | 110.38110 | 5 ft | 2 kts | 197° |
| 2026-04-23 14:06 | -6.97710 | 110.38092 | 5 ft | 4 kts | 286° |
| 2026-04-23 14:07 | -6.97690 | 110.38064 | 6 ft | 0 kts | 311° |
| 2026-04-23 14:07 | -6.97653 | 110.38022 | 5 ft | 35 kts | 311° |
| 2026-04-23 14:08 | -6.97312 | 110.37619 | 4 ft | 114 kts | 310° |
| 2026-04-23 14:08 | -6.96654 | 110.36843 | 48 ft | 174 kts | 309° |
| 2026-04-23 14:08 | -6.95815 | 110.35858 | 640 ft | 197 kts | 310° |
| 2026-04-23 14:08 | -6.94912 | 110.34790 | 1490 ft | 197 kts | 310° |
| 2026-04-23 14:09 | -6.94095 | 110.33681 | 2443 ft | 203 kts | 304° |
| 2026-04-23 14:09 | -6.93281 | 110.32402 | 2786 ft | 231 kts | 303° |
| 2026-04-23 14:09 | -6.92389 | 110.30964 | 3186 ft | 250 kts | 302° |
| 2026-04-23 14:09 | -6.91435 | 110.29423 | 3603 ft | 270 kts | 302° |
| 2026-04-23 14:10 | -6.90422 | 110.27795 | 4333 ft | 279 kts | 303° |
| 2026-04-23 14:10 | -6.89387 | 110.26138 | 5295 ft | 280 kts | 303° |
| 2026-04-23 14:10 | -6.88342 | 110.24473 | 6282 ft | 281 kts | 303° |
| 2026-04-23 14:10 | -6.87303 | 110.22821 | 7118 ft | 285 kts | 303° |
| 2026-04-23 14:11 | -6.86235 | 110.21127 | 7957 ft | 289 kts | 303° |
| 2026-04-23 14:11 | -6.85151 | 110.19412 | 8839 ft | 291 kts | 303° |
| 2026-04-23 14:11 | -6.84056 | 110.17679 | 9706 ft | 295 kts | 303° |
| 2026-04-23 14:11 | -6.82940 | 110.15915 | 10414 ft | 303 kts | 303° |
| 2026-04-23 14:12 | -6.81768 | 110.14066 | 10624 ft | 328 kts | 303° |
| 2026-04-23 14:12 | -6.80497 | 110.12062 | 10939 ft | 346 kts | 303° |
| 2026-04-23 14:12 | -6.79183 | 110.09989 | 11548 ft | 353 kts | 303° |
| 2026-04-23 14:12 | -6.77861 | 110.07901 | 12275 ft | 355 kts | 303° |
| 2026-04-23 14:13 | -6.76526 | 110.05795 | 12998 ft | 359 kts | 303° |
| 2026-04-23 14:13 | -6.75174 | 110.03661 | 13703 ft | 362 kts | 303° |
| 2026-04-23 14:13 | -6.73807 | 110.01506 | 14293 ft | 366 kts | 303° |
| 2026-04-23 14:13 | -6.72454 | 109.99372 | 14896 ft | 369 kts | 303° |
| 2026-04-23 14:14 | -6.71508 | 109.97881 | 15311 ft | 372 kts | 303° |
| 2026-04-23 14:14 | -6.69655 | 109.94960 | 16097 ft | 376 kts | 303° |
| 2026-04-23 14:14 | -6.68239 | 109.92727 | 16696 ft | 380 kts | 303° |
| 2026-04-23 14:14 | -6.66812 | 109.90478 | 17297 ft | 383 kts | 303° |
| 2026-04-23 14:15 | -6.65859 | 109.88978 | 17681 ft | 386 kts | 303° |
| 2026-04-23 14:15 | -6.64407 | 109.86690 | 18247 ft | 389 kts | 303° |
| 2026-04-23 14:15 | -6.62458 | 109.83620 | 18903 ft | 393 kts | 303° |
| 2026-04-23 14:15 | -6.61475 | 109.82072 | 19235 ft | 395 kts | 303° |
| 2026-04-23 14:16 | -6.59987 | 109.79729 | 19715 ft | 398 kts | 303° |
| 2026-04-23 14:16 | -6.58009 | 109.76615 | 20347 ft | 402 kts | 303° |
| 2026-04-23 14:16 | -6.56495 | 109.74231 | 20831 ft | 405 kts | 303° |
| 2026-04-23 14:16 | -6.54962 | 109.71817 | 21306 ft | 408 kts | 303° |
| 2026-04-23 14:17 | -6.53957 | 109.70237 | 21617 ft | 410 kts | 303° |
| 2026-04-23 14:17 | -6.52404 | 109.67793 | 22056 ft | 413 kts | 303° |
| 2026-04-23 14:17 | -6.50848 | 109.65344 | 22498 ft | 416 kts | 303° |
| 2026-04-23 14:17 | -6.49290 | 109.62892 | 22955 ft | 419 kts | 303° |
| 2026-04-23 14:18 | -6.47702 | 109.60394 | 23394 ft | 422 kts | 303° |
| 2026-04-23 14:18 | -6.46141 | 109.57939 | 23738 ft | 425 kts | 303° |
| 2026-04-23 14:18 | -6.44531 | 109.55407 | 24106 ft | 427 kts | 303° |
| 2026-04-23 14:18 | -6.42948 | 109.52917 | 24466 ft | 429 kts | 303° |
| 2026-04-23 14:19 | -6.41332 | 109.50375 | 24824 ft | 431 kts | 303° |
| 2026-04-23 14:19 | -6.39681 | 109.47781 | 25168 ft | 434 kts | 303° |
| 2026-04-23 14:19 | -6.38077 | 109.45260 | 25495 ft | 436 kts | 303° |
| 2026-04-23 14:19 | -6.36418 | 109.42652 | 25839 ft | 438 kts | 303° |
| 2026-04-23 14:20 | -6.34788 | 109.40090 | 26182 ft | 440 kts | 303° |
| 2026-04-23 14:20 | -6.33140 | 109.37498 | 26505 ft | 443 kts | 303° |
| 2026-04-23 14:20 | -6.31473 | 109.34879 | 26819 ft | 445 kts | 303° |
| 2026-04-23 14:20 | -6.29828 | 109.32223 | 27128 ft | 448 kts | 299° |
| 2026-04-23 14:21 | -6.28515 | 109.29368 | 27437 ft | 450 kts | 293° |
| 2026-04-23 14:21 | -6.27356 | 109.26432 | 27750 ft | 453 kts | 291° |
| 2026-04-23 14:21 | -6.26246 | 109.23476 | 28064 ft | 455 kts | 291° |
| 2026-04-23 14:21 | -6.25127 | 109.20489 | 28345 ft | 457 kts | 291° |
| 2026-04-23 14:22 | -6.23984 | 109.17492 | 28657 ft | 458 kts | 292° |
| 2026-04-23 14:22 | -6.22828 | 109.14517 | 29114 ft | 456 kts | 292° |
| 2026-04-23 14:22 | -6.21665 | 109.11562 | 29579 ft | 454 kts | 292° |
| 2026-04-23 14:22 | -6.20489 | 109.08602 | 29898 ft | 456 kts | 292° |
| 2026-04-23 14:23 | -6.18132 | 109.02700 | 29886 ft | 458 kts | 293° |
| 2026-04-23 14:23 | -6.15777 | 108.96801 | 29888 ft | 453 kts | 292° |
| 2026-04-23 14:24 | -6.13422 | 108.90904 | 29893 ft | 456 kts | 292° |
| 2026-04-23 14:24 | -6.11056 | 108.84977 | 29893 ft | 458 kts | 292° |
| 2026-04-23 14:25 | -6.08677 | 108.79021 | 29888 ft | 459 kts | 292° |
| 2026-04-23 14:25 | -6.06306 | 108.73082 | 29890 ft | 458 kts | 292° |
| 2026-04-23 14:26 | -6.03946 | 108.67176 | 29888 ft | 456 kts | 292° |
| 2026-04-23 14:26 | -6.01593 | 108.61289 | 29887 ft | 454 kts | 293° |
| 2026-04-23 14:27 | -5.99236 | 108.55392 | 29892 ft | 453 kts | 292° |
| 2026-04-23 14:27 | -5.96895 | 108.49533 | 29892 ft | 453 kts | 291° |
| 2026-04-23 14:28 | -5.96113 | 108.46492 | 29875 ft | 454 kts | 275° |
| 2026-04-23 14:28 | -5.96035 | 108.43315 | 29905 ft | 454 kts | 270° |
| 2026-04-23 14:28 | -5.96119 | 108.36932 | 29894 ft | 456 kts | 270° |
| 2026-04-23 14:29 | -5.96184 | 108.30550 | 29884 ft | 457 kts | 270° |
| 2026-04-23 14:29 | -5.96195 | 108.24165 | 29888 ft | 458 kts | 270° |
| 2026-04-23 14:30 | -5.96187 | 108.17771 | 29891 ft | 458 kts | 270° |
| 2026-04-23 14:30 | -5.96179 | 108.11356 | 29887 ft | 456 kts | 270° |
| 2026-04-23 14:31 | -5.96177 | 108.08212 | 29870 ft | 444 kts | 270° |
| 2026-04-23 14:31 | -5.96174 | 108.05130 | 29877 ft | 439 kts | 271° |
| 2026-04-23 14:31 | -5.96167 | 107.99057 | 29844 ft | 438 kts | 270° |
| 2026-04-23 14:32 | -5.96165 | 107.95990 | 29480 ft | 437 kts | 270° |
| 2026-04-23 14:32 | -5.96166 | 107.92974 | 29082 ft | 433 kts | 270° |
| 2026-04-23 14:32 | -5.96167 | 107.89945 | 28622 ft | 429 kts | 270° |
| 2026-04-23 14:32 | -5.96168 | 107.86958 | 28180 ft | 425 kts | 270° |
| 2026-04-23 14:33 | -5.96169 | 107.84012 | 27744 ft | 421 kts | 270° |
| 2026-04-23 14:33 | -5.96169 | 107.81080 | 27310 ft | 417 kts | 270° |
| 2026-04-23 14:33 | -5.96169 | 107.78191 | 26885 ft | 414 kts | 270° |
| 2026-04-23 14:33 | -5.96169 | 107.75293 | 26457 ft | 411 kts | 270° |
| 2026-04-23 14:34 | -5.96168 | 107.72484 | 26042 ft | 408 kts | 270° |
| 2026-04-23 14:34 | -5.96168 | 107.69615 | 25619 ft | 405 kts | 270° |
| 2026-04-23 14:34 | -5.96167 | 107.66776 | 25178 ft | 403 kts | 270° |
| 2026-04-23 14:34 | -5.96167 | 107.63975 | 24720 ft | 402 kts | 270° |
| 2026-04-23 14:35 | -5.96167 | 107.61194 | 24242 ft | 402 kts | 270° |
| 2026-04-23 14:35 | -5.96167 | 107.58334 | 23731 ft | 403 kts | 270° |
| 2026-04-23 14:35 | -5.96168 | 107.55563 | 23193 ft | 403 kts | 270° |
| 2026-04-23 14:35 | -5.96169 | 107.52714 | 22658 ft | 402 kts | 270° |
| 2026-04-23 14:36 | -5.96169 | 107.49916 | 22139 ft | 400 kts | 270° |
| 2026-04-23 14:36 | -5.96169 | 107.47167 | 21652 ft | 397 kts | 270° |
| 2026-04-23 14:36 | -5.96169 | 107.44368 | 21148 ft | 395 kts | 270° |
| 2026-04-23 14:36 | -5.96169 | 107.41652 | 20679 ft | 393 kts | 270° |
| 2026-04-23 14:37 | -5.96168 | 107.38899 | 20202 ft | 391 kts | 270° |
| 2026-04-23 14:37 | -5.96168 | 107.36177 | 19719 ft | 390 kts | 270° |
| 2026-04-23 14:37 | -5.96167 | 107.33456 | 19230 ft | 384 kts | 270° |
| 2026-04-23 14:37 | -5.96166 | 107.30804 | 18763 ft | 376 kts | 270° |
| 2026-04-23 14:38 | -5.96163 | 107.28176 | 18285 ft | 376 kts | 270° |
| 2026-04-23 14:38 | -5.96159 | 107.25587 | 17799 ft | 375 kts | 270° |
| 2026-04-23 14:38 | -5.96154 | 107.23001 | 17327 ft | 373 kts | 270° |
| 2026-04-23 14:38 | -5.96150 | 107.20372 | 16859 ft | 371 kts | 270° |
| 2026-04-23 14:39 | -5.96145 | 107.17786 | 16406 ft | 368 kts | 270° |
| 2026-04-23 14:39 | -5.96141 | 107.15231 | 15951 ft | 363 kts | 270° |
| 2026-04-23 14:39 | -5.96137 | 107.12734 | 15503 ft | 352 kts | 270° |
| 2026-04-23 14:39 | -5.96133 | 107.10698 | 15154 ft | 344 kts | 270° |
| 2026-04-23 14:40 | -5.96250 | 107.08320 | 14635 ft | 338 kts | 263° |
| 2026-04-23 14:40 | -5.96598 | 107.05981 | 14012 ft | 337 kts | 261° |
| 2026-04-23 14:40 | -5.96993 | 107.03706 | 13390 ft | 335 kts | 260° |
| 2026-04-23 14:40 | -5.97401 | 107.01401 | 12767 ft | 332 kts | 261° |
| 2026-04-23 14:41 | -5.97789 | 106.99155 | 12166 ft | 329 kts | 261° |
| 2026-04-23 14:41 | -5.98179 | 106.96846 | 11558 ft | 326 kts | 261° |
| 2026-04-23 14:41 | -5.98538 | 106.94669 | 11032 ft | 322 kts | 261° |
| 2026-04-23 14:41 | -5.98894 | 106.92481 | 10756 ft | 309 kts | 261° |
| 2026-04-23 14:42 | -5.99233 | 106.90387 | 10460 ft | 299 kts | 262° |
| 2026-04-23 14:42 | -5.99561 | 106.88346 | 10112 ft | 293 kts | 262° |
| 2026-04-23 14:42 | -5.99881 | 106.86345 | 9742 ft | 287 kts | 261° |
| 2026-04-23 14:42 | -6.00196 | 106.84371 | 9328 ft | 283 kts | 262° |
| 2026-04-23 14:43 | -6.00504 | 106.82444 | 9012 ft | 276 kts | 262° |
| 2026-04-23 14:43 | -6.00804 | 106.80563 | 8718 ft | 269 kts | 262° |
| 2026-04-23 14:43 | -6.01097 | 106.78723 | 8454 ft | 267 kts | 261° |
| 2026-04-23 14:43 | -6.01393 | 106.76866 | 8183 ft | 267 kts | 262° |
| 2026-04-23 14:44 | -6.01679 | 106.75069 | 7926 ft | 266 kts | 262° |
| 2026-04-23 14:44 | -6.01973 | 106.73225 | 7651 ft | 266 kts | 262° |
| 2026-04-23 14:44 | -6.02266 | 106.71384 | 7379 ft | 266 kts | 261° |
| 2026-04-23 14:44 | -6.02556 | 106.69565 | 7110 ft | 265 kts | 261° |
| 2026-04-23 14:45 | -6.02849 | 106.67724 | 6845 ft | 265 kts | 261° |
| 2026-04-23 14:45 | -6.03139 | 106.65898 | 6577 ft | 265 kts | 261° |
| 2026-04-23 14:45 | -6.03430 | 106.64071 | 6388 ft | 262 kts | 261° |
| 2026-04-23 14:45 | -6.03712 | 106.62300 | 6229 ft | 256 kts | 262° |
| 2026-04-23 14:46 | -6.03987 | 106.60574 | 6121 ft | 249 kts | 261° |
| 2026-04-23 14:46 | -6.04258 | 106.58868 | 6007 ft | 242 kts | 261° |
| 2026-04-23 14:46 | -6.04694 | 106.57230 | 5725 ft | 246 kts | 249° |
| 2026-04-23 14:46 | -6.05348 | 106.55630 | 5469 ft | 251 kts | 247° |
| 2026-04-23 14:47 | -6.06046 | 106.54000 | 5176 ft | 254 kts | 247° |
| 2026-04-23 14:47 | -6.06739 | 106.52360 | 4872 ft | 255 kts | 247° |
| 2026-04-23 14:47 | -6.07424 | 106.50707 | 4566 ft | 257 kts | 248° |
| 2026-04-23 14:47 | -6.08102 | 106.49050 | 4249 ft | 259 kts | 248° |
| 2026-04-23 14:48 | -6.08786 | 106.47361 | 3933 ft | 260 kts | 248° |
| 2026-04-23 14:48 | -6.09471 | 106.45668 | 3615 ft | 261 kts | 248° |
| 2026-04-23 14:48 | -6.10197 | 106.44029 | 3336 ft | 252 kts | 236° |
| 2026-04-23 14:48 | -6.11403 | 106.42902 | 3231 ft | 228 kts | 205° |
| 2026-04-23 14:49 | -6.12846 | 106.42453 | 3106 ft | 206 kts | 184° |
| 2026-04-23 14:49 | -6.14194 | 106.42490 | 2988 ft | 188 kts | 169° |
| 2026-04-23 14:49 | -6.15503 | 106.42709 | 2504 ft | 194 kts | 167° |
| 2026-04-23 14:49 | -6.16725 | 106.43181 | 2107 ft | 187 kts | 137° |
| 2026-04-23 14:50 | -6.17414 | 106.44210 | 2035 ft | 177 kts | 105° |
| 2026-04-23 14:50 | -6.17510 | 106.45434 | 2007 ft | 176 kts | 88° |
| 2026-04-23 14:50 | -6.17482 | 106.46651 | 1990 ft | 173 kts | 88° |
| 2026-04-23 14:50 | -6.17456 | 106.47866 | 1987 ft | 174 kts | 89° |
| 2026-04-23 14:51 | -6.17427 | 106.49079 | 1994 ft | 174 kts | 86° |
| 2026-04-23 14:51 | -6.17065 | 106.50230 | 1998 ft | 172 kts | 65° |
| 2026-04-23 14:51 | -6.16601 | 106.51338 | 1991 ft | 173 kts | 70° |
| 2026-04-23 14:51 | -6.16165 | 106.52463 | 1989 ft | 171 kts | 69° |
| 2026-04-23 14:52 | -6.15739 | 106.53548 | 2000 ft | 162 kts | 69° |
| 2026-04-23 14:52 | -6.15331 | 106.54574 | 1988 ft | 154 kts | 70° |
| 2026-04-23 14:52 | -6.14937 | 106.55566 | 1893 ft | 150 kts | 69° |
| 2026-04-23 14:52 | -6.14546 | 106.56546 | 1679 ft | 150 kts | 69° |
| 2026-04-23 14:53 | -6.14174 | 106.57478 | 1477 ft | 143 kts | 69° |
| 2026-04-23 14:53 | -6.13824 | 106.58355 | 1305 ft | 140 kts | 69° |
| 2026-04-23 14:53 | -6.13462 | 106.59264 | 1129 ft | 139 kts | 69° |
| 2026-04-23 14:53 | -6.13103 | 106.60162 | 970 ft | 141 kts | 69° |
| 2026-04-23 14:54 | -6.12740 | 106.61075 | 828 ft | 139 kts | 69° |
| 2026-04-23 14:54 | -6.12362 | 106.61973 | 633 ft | 140 kts | 67° |
| 2026-04-23 14:54 | -6.11999 | 106.62879 | 423 ft | 140 kts | 69° |
| 2026-04-23 14:54 | -6.11651 | 106.63768 | 251 ft | 138 kts | 68° |
| 2026-04-23 14:55 | -6.11294 | 106.64654 | 59 ft | 137 kts | 69° |
| 2026-04-23 14:55 | -6.10970 | 106.65486 | 35 ft | 110 kts | 69° |
| 2026-04-23 14:55 | -6.10740 | 106.66055 | 35 ft | 68 kts | 68° |
| 2026-04-23 14:55 | -6.10625 | 106.66391 | 33 ft | 42 kts | 84° |
| 2026-04-23 14:56 | -6.10657 | 106.66624 | 33 ft | 23 kts | 124° |
| 2026-04-23 14:56 | -6.10782 | 106.66666 | 35 ft | 10 kts | 208° |
| 2026-04-23 14:56 | -6.10814 | 106.66606 | 36 ft | 10 kts | 252° |
| 2026-04-23 14:56 | -6.10839 | 106.66542 | 34 ft | 11 kts | 248° |
| 2026-04-23 14:57 | -6.10871 | 106.66462 | 36 ft | 14 kts | 248° |
| 2026-04-23 14:57 | -6.10915 | 106.66354 | 36 ft | 19 kts | 248° |
| 2026-04-23 14:57 | -6.10970 | 106.66216 | 36 ft | 23 kts | 248° |
| 2026-04-23 14:57 | -6.11035 | 106.66053 | 37 ft | 24 kts | 248° |
| 2026-04-23 14:58 | -6.11128 | 106.66003 | 37 ft | 14 kts | 160° |
| 2026-04-23 14:58 | -6.11215 | 106.66048 | 35 ft | 14 kts | 132° |
| 2026-04-23 14:58 | -6.11241 | 106.66104 | 36 ft | 13 kts | 104° |
| 2026-04-23 14:58 | -6.11257 | 106.66198 | 37 ft | 14 kts | 97° |
| 2026-04-23 14:59 | -6.11305 | 106.66270 | 37 ft | 12 kts | 161° |
| 2026-04-23 14:59 | -6.11400 | 106.66325 | 37 ft | 7 kts | 108° |
| 2026-04-23 14:59 | -6.11396 | 106.66361 | 35 ft | 8 kts | 71° |
| 2026-04-23 14:59 | -6.11361 | 106.66449 | 37 ft | 13 kts | 68° |
| 2026-04-23 15:00 | -6.11336 | 106.66513 | 37 ft | 16 kts | 68° |
| 2026-04-23 15:00 | -6.11288 | 106.66633 | 37 ft | 21 kts | 68° |
| 2026-04-23 15:00 | -6.11232 | 106.66773 | 35 ft | 22 kts | 68° |
| 2026-04-23 15:00 | -6.11223 | 106.66862 | 37 ft | 6 kts | 139° |
| 2026-04-23 15:01 | -6.11284 | 106.66890 | 37 ft | 10 kts | 158° |
| 2026-04-23 15:01 | -6.11337 | 106.66912 | 37 ft | 15 kts | 158° |
| 2026-04-23 15:01 | -6.11428 | 106.66949 | 37 ft | 8 kts | 158° |
| 2026-04-23 15:01 | -6.11438 | 106.66964 | 36 ft | 2 kts | 105° |
| 2026-04-23 15:02 | -6.11438 | 106.66980 | 37 ft | 3 kts | 85° |
| 2026-04-23 15:02 | -6.11432 | 106.66998 | 37 ft | 3 kts | 69° |
| 2026-04-23 15:02 | -6.11424 | 106.67017 | 35 ft | 3 kts | 68° |
| 2026-04-23 15:02 | -6.11419 | 106.67031 | 36 ft | 0 kts | 68° |